Ana Sayfa
METAR-TAF:

METAR-TAF

Havaalanları :

Amerika Birleşik Devletleri Deniz Harp Okulu

Annapolis, Maryland, Amerika Birleşik Devletleri

Enlem: 38-59-29N, Boylam: 076-29-00W, yükseklik: 2 m

Güncel hava durumu gözlemi

Rapor saat 08:54 UTC de 36 dakika önce yapıldı.
Rüzgar kuzeydoğudan 6 kt
Sıcaklık 16°C
Nem 82%
Basınç 1022 hPa
Görüş mesafesi: 16.1 km
2400 ft yükseklikte çok bulutlu

METAR: KNAK 250854Z AUTO 05006KT 10SM OVC024 16/13 A3019 RMK AO2 SLP223 T01560128 53002 $

Saat: 05:30 (09:30 UTC)


TAF: eksik

4.000'den fazla havaalanı için hava durumu gözlemleri ve tahminleri (METAR ve TAF raporları).

Kullanılabilir istasyonlar harita üzerinde sarı ve kırmızı noktalarla gösterilir.

İstasyonun adını görmek için fareyi noktanın üzerinde gezdirin.

Sonrasında hava gözlem ve tahminlerini görmek için tıklayın.

Haritayı değiştirmek için: yaklaştırmak için siyah artı işaretli yeşil düğmeye ve uzaklaştırmak için de eksi işaretli düğmeye hızla tıklayın; bitişik haritalar için yeşil okları kullanın.


METAR-TAF: